KEDE/EDE METAR and TAF weather

Enter ICAO airport designator
Station Type Date Time Source
KEDE METAR 2020/07/14 17:15 UTC NOAA

KEDE 141715Z AUTO 15004KT 10SM SCT024 30/26 A2999 RMK AO2 T03030260


Station Type Date Time Source
KEDE Decoded METAR 2020/07/14 17:15 UTC NOAA

Edenton, Northeastern Regional Airport, NC, United States (KEDE) 36-01-40N 076-34-02W
Jul 14, 2020 - 01:15 PM EDT / 2020.07.14 1715 UTC
Wind: from the SSE (150 degrees) at 5 MPH (4 KT):0
Visibility: 10 mile(s):0
Sky conditions: partly cloudy
Temperature: 86.5 F (30.3 C)
Heat index: 99.7 F (37.6 C):1
Dew Point: 78.8 F (26.0 C)
Relative Humidity: 77%
Pressure (altimeter): 29.99 in. Hg (1015 hPa)
ob: KEDE 141715Z AUTO 15004KT 10SM SCT024 30/26 A2999 RMK AO2 T03030260
cycle: 17

Station Type Date Time Source
KEDE TAF UTC NOAA

Error!

Example: see airport list